createdAt,value
2019-03-24T00:00:36.949Z,44.38
2019-03-24T00:05:40.406Z,44.41
2019-03-24T00:10:43.874Z,44.44
2019-03-24T00:15:47.336Z,44.45
2019-03-24T00:20:50.797Z,44.49
2019-03-24T00:25:54.255Z,44.48
2019-03-24T00:30:57.718Z,44.48
2019-03-24T00:36:01.177Z,44.47
2019-03-24T00:41:04.654Z,44.56
2019-03-24T00:46:08.112Z,44.59
2019-03-24T00:51:11.571Z,44.64
2019-03-24T00:56:15.046Z,44.71
2019-03-24T01:01:19.177Z,44.68
2019-03-24T01:06:22.642Z,44.72
2019-03-24T01:11:26.099Z,44.73
2019-03-24T01:16:29.614Z,44.79
2019-03-24T01:21:33.076Z,44.81
2019-03-24T01:26:36.537Z,44.86
2019-03-24T01:31:40.000Z,44.89
2019-03-24T01:36:43.469Z,44.93
2019-03-24T01:41:46.924Z,44.96
2019-03-24T01:46:50.384Z,45.07
2019-03-24T01:51:53.844Z,45.08
2019-03-24T01:56:57.304Z,45.05
2019-03-24T02:02:00.774Z,45.06
2019-03-24T02:07:04.433Z,45.12
2019-03-24T02:12:07.892Z,45.18
2019-03-24T02:17:11.359Z,45.18
2019-03-24T02:22:14.815Z,45.21
2019-03-24T02:27:18.282Z,45.14
2019-03-24T02:32:21.742Z,45.16
2019-03-24T02:37:25.200Z,45.19
2019-03-24T02:42:28.664Z,45.26
2019-03-24T02:47:32.126Z,45.20
2019-03-24T02:52:35.589Z,45.15
2019-03-24T02:57:39.052Z,45.21
2019-03-24T03:02:42.509Z,45.20
2019-03-24T03:07:45.990Z,45.26
2019-03-24T03:12:49.454Z,45.26
2019-03-24T03:17:52.921Z,45.28
2019-03-24T03:22:56.396Z,45.22
2019-03-24T03:27:59.860Z,45.28
2019-03-24T03:33:03.397Z,45.29
2019-03-24T03:38:06.912Z,45.25
2019-03-24T03:43:10.375Z,45.31
2019-03-24T03:48:13.828Z,45.33
2019-03-24T03:53:17.298Z,45.33
2019-03-24T03:58:20.750Z,45.29
2019-03-24T04:03:24.244Z,45.28
2019-03-24T04:08:27.709Z,45.27
2019-03-24T04:13:31.172Z,45.29
2019-03-24T04:18:34.643Z,45.35
2019-03-24T04:23:38.100Z,45.39
2019-03-24T04:28:41.567Z,45.42
2019-03-24T04:33:45.033Z,45.37
2019-03-24T04:38:48.571Z,45.43
2019-03-24T04:43:52.035Z,45.33
2019-03-24T04:48:55.502Z,45.46
2019-03-24T04:53:58.960Z,45.41
2019-03-24T04:59:02.420Z,45.47
2019-03-24T05:04:05.881Z,45.50
2019-03-24T05:09:09.344Z,45.47
2019-03-24T05:14:12.805Z,45.50
2019-03-24T05:19:16.272Z,45.51
2019-03-24T05:24:19.729Z,45.46
2019-03-24T05:29:23.188Z,45.53
2019-03-24T05:34:26.654Z,45.50
2019-03-24T05:39:30.121Z,45.52
2019-03-24T05:44:33.587Z,45.56
2019-03-24T05:49:37.070Z,45.52
2019-03-24T05:54:40.538Z,45.85
2019-03-24T05:59:44.006Z,45.86
2019-03-24T06:04:47.467Z,45.85
2019-03-24T06:09:50.937Z,45.84
2019-03-24T06:14:54.399Z,45.81
2019-03-24T06:19:57.857Z,45.79
2019-03-24T06:25:01.323Z,45.72
2019-03-24T06:30:07.661Z,45.74
2019-03-24T06:35:11.250Z,45.74
2019-03-24T06:40:14.782Z,45.73
2019-03-24T06:45:27.980Z,45.74
2019-03-24T06:50:23.423Z,45.72
2019-03-24T06:55:26.895Z,45.71
2019-03-24T07:00:30.366Z,45.67
2019-03-24T07:05:33.836Z,45.64
2019-03-24T07:10:37.298Z,45.64
2019-03-24T07:15:40.762Z,45.64
2019-03-24T07:20:44.224Z,45.64
2019-03-24T07:25:47.697Z,45.64
2019-03-24T07:30:51.156Z,45.63
2019-03-24T07:35:54.628Z,45.59
2019-03-24T07:40:58.083Z,45.59
2019-03-24T07:46:01.559Z,45.59
2019-03-24T07:51:05.018Z,45.56
2019-03-24T07:56:08.480Z,45.54
2019-03-24T08:01:11.946Z,45.54
2019-03-24T08:06:15.416Z,42.99
2019-03-24T08:11:18.897Z,39.95
2019-03-24T08:16:22.360Z,38.40
2019-03-24T08:21:25.832Z,39.94
2019-03-24T08:26:29.306Z,40.79
2019-03-24T08:31:32.776Z,41.24
2019-03-24T08:36:36.248Z,41.65
2019-03-24T08:41:39.716Z,41.97
2019-03-24T08:46:45.122Z,42.38
2019-03-24T08:51:48.382Z,42.39
2019-03-24T08:56:51.854Z,42.55
2019-03-24T09:01:55.322Z,42.46
2019-03-24T09:06:58.795Z,42.54
2019-03-24T09:12:02.273Z,42.63
2019-03-24T09:17:05.740Z,42.43
2019-03-24T09:22:09.216Z,42.52
2019-03-24T09:27:12.693Z,42.29
2019-03-24T09:32:16.157Z,42.14
2019-03-24T09:37:19.627Z,42.17
2019-03-24T09:42:23.102Z,42.31
2019-03-24T09:47:26.567Z,42.21
2019-03-24T09:52:30.047Z,42.05
2019-03-24T09:57:33.514Z,41.95
2019-03-24T10:02:36.988Z,41.74
2019-03-24T10:07:40.458Z,41.00
2019-03-24T10:12:43.927Z,40.25
2019-03-24T10:17:47.395Z,40.13
2019-03-24T10:22:50.864Z,40.08
2019-03-24T10:27:54.334Z,40.03
2019-03-24T10:32:57.808Z,40.10
2019-03-24T10:38:01.288Z,40.30
2019-03-24T10:43:04.825Z,40.13
2019-03-24T10:48:08.290Z,40.24
2019-03-24T10:53:11.758Z,40.41
2019-03-24T10:58:15.229Z,40.54
2019-03-24T11:03:18.693Z,40.58
2019-03-24T11:08:22.163Z,40.77
2019-03-24T11:13:25.639Z,41.02
2019-03-24T11:18:29.102Z,41.45
2019-03-24T11:23:32.569Z,41.46
2019-03-24T11:28:36.035Z,41.82
2019-03-24T11:33:39.508Z,42.15
2019-03-24T11:38:42.995Z,42.51
2019-03-24T11:43:46.466Z,42.84
2019-03-24T11:48:49.933Z,43.28
2019-03-24T11:53:53.418Z,43.30
2019-03-24T11:58:56.979Z,43.27
2019-03-24T12:04:00.548Z,43.23
2019-03-24T12:09:05.285Z,43.10
2019-03-24T12:14:08.756Z,42.97
2019-03-24T12:19:12.228Z,42.83
2019-03-24T12:24:17.336Z,42.67
2019-03-24T12:29:20.807Z,42.51
2019-03-24T12:34:24.283Z,42.48
2019-03-24T12:39:27.740Z,42.44
2019-03-24T12:44:31.212Z,42.31
2019-03-24T12:49:34.738Z,42.29
2019-03-24T12:54:38.199Z,42.50
2019-03-24T12:59:41.668Z,42.31
2019-03-24T13:04:45.199Z,42.00
2019-03-24T13:09:48.664Z,42.04
2019-03-24T13:14:52.582Z,42.17
2019-03-24T13:19:56.065Z,42.22
2019-03-24T13:24:59.529Z,42.08
2019-03-24T13:30:06.124Z,41.61
2019-03-24T13:35:09.584Z,41.55
2019-03-24T13:40:13.043Z,41.38
2019-03-24T13:45:16.505Z,41.24
2019-03-24T13:50:30.698Z,41.21
2019-03-24T13:55:25.164Z,40.82
2019-03-24T14:00:28.697Z,41.13
2019-03-24T14:05:32.160Z,40.98
2019-03-24T14:10:35.630Z,41.04
2019-03-24T14:15:39.101Z,41.08
2019-03-24T14:20:43.875Z,41.24
2019-03-24T14:25:47.582Z,41.21
2019-03-24T14:30:51.386Z,41.41
2019-03-24T14:35:54.849Z,41.29
2019-03-24T14:40:58.316Z,40.99
2019-03-24T14:46:01.779Z,40.96
2019-03-24T14:51:05.242Z,40.63
2019-03-24T14:56:08.710Z,40.59
2019-03-24T15:01:12.181Z,40.42
2019-03-24T15:06:15.640Z,40.26
2019-03-24T15:11:19.131Z,40.16
2019-03-24T15:16:22.598Z,39.01
2019-03-24T15:21:26.072Z,39.29
2019-03-24T15:26:29.523Z,39.41
2019-03-24T15:31:32.990Z,39.50
2019-03-24T15:36:36.453Z,39.76
2019-03-24T15:41:39.920Z,39.87
2019-03-24T15:46:43.382Z,39.75
2019-03-24T15:51:46.848Z,39.76
2019-03-24T15:56:50.318Z,39.64
2019-03-24T16:01:53.784Z,39.79
2019-03-24T16:06:57.232Z,39.96
2019-03-24T16:12:00.864Z,39.78
2019-03-24T16:17:04.353Z,39.70
2019-03-24T16:22:07.848Z,39.46
2019-03-24T16:27:11.301Z,39.38
2019-03-24T16:32:14.781Z,39.28
2019-03-24T16:37:18.260Z,39.23
2019-03-24T16:42:21.742Z,39.16
2019-03-24T16:47:25.217Z,39.55
2019-03-24T16:52:28.691Z,39.26
2019-03-24T16:57:32.172Z,39.44
2019-03-24T17:02:35.661Z,39.77
2019-03-24T17:07:39.313Z,39.83
2019-03-24T17:12:42.801Z,40.00
2019-03-24T17:17:46.280Z,40.22
2019-03-24T17:22:49.762Z,40.39
2019-03-24T17:27:53.254Z,40.53
2019-03-24T17:32:56.743Z,40.63
2019-03-24T17:38:00.221Z,40.73
2019-03-24T17:43:03.778Z,40.78
2019-03-24T17:48:07.443Z,40.80
2019-03-24T17:53:10.924Z,40.91
2019-03-24T17:58:14.402Z,41.00
2019-03-24T18:03:17.934Z,41.08
2019-03-24T18:08:21.395Z,41.15
2019-03-24T18:13:24.861Z,41.23
2019-03-24T18:18:28.325Z,41.30
2019-03-24T18:23:31.783Z,41.33
2019-03-24T18:28:35.252Z,41.39
2019-03-24T18:33:38.719Z,41.50
2019-03-24T18:38:42.197Z,41.50
2019-03-24T18:43:45.656Z,41.60
2019-03-24T18:48:49.121Z,41.63
2019-03-24T18:53:52.578Z,41.68
2019-03-24T18:58:56.036Z,41.67
2019-03-24T19:03:59.495Z,41.76
2019-03-24T19:09:02.965Z,41.82
2019-03-24T19:14:06.417Z,41.85
2019-03-24T19:19:09.881Z,41.85
2019-03-24T19:24:13.340Z,41.92
2019-03-24T19:29:16.829Z,42.38
2019-03-24T19:34:20.293Z,42.25
2019-03-24T19:39:24.019Z,42.30
2019-03-24T19:44:27.489Z,42.28
2019-03-24T19:49:30.954Z,42.25
2019-03-24T19:54:34.422Z,42.22
2019-03-24T19:59:37.884Z,42.18
2019-03-24T20:04:41.347Z,42.16
2019-03-24T20:09:44.811Z,42.16
2019-03-24T20:14:48.271Z,42.47
2019-03-24T20:19:51.732Z,42.88
2019-03-24T20:24:55.193Z,42.97
2019-03-24T20:29:58.647Z,42.98
2019-03-24T20:35:02.111Z,42.91
2019-03-24T20:40:07.272Z,42.90
2019-03-24T20:45:11.571Z,42.86
2019-03-24T20:50:15.168Z,42.82
2019-03-24T20:55:18.628Z,42.82
2019-03-24T21:00:35.262Z,42.80
2019-03-24T21:05:38.753Z,42.81
2019-03-24T21:10:42.190Z,42.83
2019-03-24T21:15:45.647Z,42.81
2019-03-24T21:20:49.114Z,42.86
2019-03-24T21:25:52.581Z,42.79
2019-03-24T21:30:56.050Z,42.85
2019-03-24T21:35:59.516Z,42.92
2019-03-24T21:41:03.449Z,42.94
2019-03-24T21:46:06.918Z,42.97
2019-03-24T21:51:10.373Z,42.97
2019-03-24T21:56:14.274Z,43.04
2019-03-24T22:01:17.870Z,43.07
2019-03-24T22:06:21.328Z,43.09
2019-03-24T22:11:24.788Z,43.10
2019-03-24T22:16:28.243Z,43.13
2019-03-24T22:21:31.705Z,43.19
2019-03-24T22:26:35.165Z,43.23
2019-03-24T22:31:38.788Z,43.28
2019-03-24T22:36:42.255Z,43.32
2019-03-24T22:41:45.712Z,43.34
2019-03-24T22:46:49.175Z,43.35
2019-03-24T22:51:54.835Z,43.40
2019-03-24T22:56:57.947Z,43.41
2019-03-24T23:02:01.607Z,43.45
2019-03-24T23:07:05.308Z,43.47
2019-03-24T23:12:08.768Z,43.50
2019-03-24T23:17:12.227Z,43.53
2019-03-24T23:22:15.687Z,43.57
2019-03-24T23:27:19.418Z,43.58
2019-03-24T23:32:22.881Z,43.66
2019-03-24T23:37:26.346Z,43.68
2019-03-24T23:42:29.799Z,43.70
2019-03-24T23:47:33.261Z,43.65
2019-03-24T23:52:36.721Z,43.75
2019-03-24T23:57:40.181Z,43.78
